sensor_id;sensor_type;location;lat;lon;timestamp;pressure;altitude;pressure_sealevel;temperature;humidity
20889;BME280;10604;51.976;7.594;2022-10-19T00:00:17;102091.88;;;25.35;33.61
20889;BME280;10604;51.976;7.594;2022-10-19T00:02:43;102091.44;;;25.42;33.61
20889;BME280;10604;51.976;7.594;2022-10-19T00:05:08;102088.94;;;25.39;32.89
20889;BME280;10604;51.976;7.594;2022-10-19T00:07:34;102091.03;;;25.60;32.78
20889;BME280;10604;51.976;7.594;2022-10-19T00:09:59;102091.97;;;25.47;32.35
20889;BME280;10604;51.976;7.594;2022-10-19T00:12:24;102096.19;;;25.13;32.89
20889;BME280;10604;51.976;7.594;2022-10-19T00:14:50;102091.22;;;25.19;32.85
20889;BME280;10604;51.976;7.594;2022-10-19T00:17:15;102086.34;;;24.99;33.40
20889;BME280;10604;51.976;7.594;2022-10-19T00:19:40;102087.72;;;24.92;32.92
20889;BME280;10604;51.976;7.594;2022-10-19T00:22:06;102084.44;;;24.87;33.18
20889;BME280;10604;51.976;7.594;2022-10-19T00:24:31;102089.91;;;24.73;33.08
20889;BME280;10604;51.976;7.594;2022-10-19T00:26:56;102088.75;;;24.77;33.34
20889;BME280;10604;51.976;7.594;2022-10-19T00:29:22;102087.63;;;24.67;33.03
20889;BME280;10604;51.976;7.594;2022-10-19T00:31:49;102086.16;;;24.88;33.49
20889;BME280;10604;51.976;7.594;2022-10-19T00:34:14;102079.69;;;24.78;33.35
20889;BME280;10604;51.976;7.594;2022-10-19T00:36:39;102081.59;;;24.76;33.10
20889;BME280;10604;51.976;7.594;2022-10-19T00:39:07;102080.59;;;24.91;33.16
20889;BME280;10604;51.976;7.594;2022-10-19T00:41:35;102086.47;;;24.83;33.08
20889;BME280;10604;51.976;7.594;2022-10-19T00:44:53;102091.41;;;24.91;33.13
20889;BME280;10604;51.976;7.594;2022-10-19T00:46:51;102088.84;;;24.88;32.90
20889;BME280;10604;51.976;7.594;2022-10-19T00:49:21;102094.47;;;24.72;32.58
20889;BME280;10604;51.976;7.594;2022-10-19T00:51:52;102095.09;;;24.76;32.89
20889;BME280;10604;51.976;7.594;2022-10-19T00:54:18;102093.44;;;24.61;32.46
20889;BME280;10604;51.976;7.594;2022-10-19T00:56:47;102096.13;;;24.61;32.35
20889;BME280;10604;51.976;7.594;2022-10-19T00:59:15;102088.94;;;24.74;32.49
20889;BME280;10604;51.976;7.594;2022-10-19T01:01:44;102091.97;;;24.82;32.36
20889;BME280;10604;51.976;7.594;2022-10-19T01:04:10;102089.69;;;24.76;32.22
20889;BME280;10604;51.976;7.594;2022-10-19T01:06:37;102091.50;;;24.63;32.47
20889;BME280;10604;51.976;7.594;2022-10-19T01:09:03;102090.56;;;24.76;32.59
20889;BME280;10604;51.976;7.594;2022-10-19T01:11:57;102092.84;;;24.82;32.37
20889;BME280;10604;51.976;7.594;2022-10-19T01:17:28;102083.84;;;24.69;32.40
20889;BME280;10604;51.976;7.594;2022-10-19T01:20:12;102098.00;;;24.73;32.55
20889;BME280;10604;51.976;7.594;2022-10-19T01:25:37;102085.88;;;24.66;33.35
20889;BME280;10604;51.976;7.594;2022-10-19T01:28:17;102087.41;;;24.70;32.88
20889;BME280;10604;51.976;7.594;2022-10-19T01:36:20;102069.22;;;24.46;33.52
20889;BME280;10604;51.976;7.594;2022-10-19T01:39:05;102069.06;;;24.75;32.65
20889;BME280;10604;51.976;7.594;2022-10-19T01:44:22;102068.06;;;24.90;32.84
20889;BME280;10604;51.976;7.594;2022-10-19T01:48:03;102063.59;;;24.89;32.25
20889;BME280;10604;51.976;7.594;2022-10-19T01:50:36;102060.53;;;24.68;32.47
20889;BME280;10604;51.976;7.594;2022-10-19T01:53:06;102071.22;;;24.70;32.68
20889;BME280;10604;51.976;7.594;2022-10-19T01:55:33;102071.22;;;24.70;32.30
20889;BME280;10604;51.976;7.594;2022-10-19T01:58:02;102072.69;;;24.48;32.08
20889;BME280;10604;51.976;7.594;2022-10-19T02:00:30;102068.50;;;24.30;32.48
20889;BME280;10604;51.976;7.594;2022-10-19T02:02:59;102067.38;;;24.20;32.87
20889;BME280;10604;51.976;7.594;2022-10-19T02:05:29;102066.06;;;24.40;32.44
20889;BME280;10604;51.976;7.594;2022-10-19T02:07:59;102073.88;;;24.30;32.82
20889;BME280;10604;51.976;7.594;2022-10-19T02:10:26;102070.94;;;24.47;32.39
20889;BME280;10604;51.976;7.594;2022-10-19T02:12:54;102065.72;;;24.44;32.17
20889;BME280;10604;51.976;7.594;2022-10-19T02:15:21;102077.16;;;24.35;32.66
20889;BME280;10604;51.976;7.594;2022-10-19T02:17:51;102076.25;;;24.22;32.75
20889;BME280;10604;51.976;7.594;2022-10-19T02:20:20;102076.91;;;24.26;32.45
20889;BME280;10604;51.976;7.594;2022-10-19T02:22:46;102070.22;;;24.31;32.39
20889;BME280;10604;51.976;7.594;2022-10-19T02:25:12;102065.63;;;24.19;31.88
20889;BME280;10604;51.976;7.594;2022-10-19T02:27:38;102074.88;;;24.15;32.38
20889;BME280;10604;51.976;7.594;2022-10-19T02:30:09;102068.16;;;24.22;32.11
20889;BME280;10604;51.976;7.594;2022-10-19T02:32:35;102065.25;;;24.11;32.43
20889;BME280;10604;51.976;7.594;2022-10-19T02:35:00;102065.81;;;24.16;32.01
20889;BME280;10604;51.976;7.594;2022-10-19T02:37:26;102061.75;;;24.23;31.79
20889;BME280;10604;51.976;7.594;2022-10-19T02:39:51;102061.75;;;24.23;32.20
20889;BME280;10604;51.976;7.594;2022-10-19T02:42:23;102065.09;;;24.00;32.47
20889;BME280;10604;51.976;7.594;2022-10-19T02:47:38;102066.56;;;24.18;32.37
20889;BME280;10604;51.976;7.594;2022-10-19T02:50:07;102062.78;;;24.08;32.09
20889;BME280;10604;51.976;7.594;2022-10-19T02:52:36;102066.38;;;24.35;31.51
20889;BME280;10604;51.976;7.594;2022-10-19T02:55:02;102060.19;;;24.33;32.12
20889;BME280;10604;51.976;7.594;2022-10-19T02:57:28;102064.47;;;24.09;32.06
20889;BME280;10604;51.976;7.594;2022-10-19T02:59:56;102062.38;;;24.14;31.76
20889;BME280;10604;51.976;7.594;2022-10-19T03:02:22;102066.03;;;24.13;31.97
20889;BME280;10604;51.976;7.594;2022-10-19T03:04:47;102067.41;;;23.92;32.05
20889;BME280;10604;51.976;7.594;2022-10-19T03:07:15;102061.63;;;23.98;32.21
20889;BME280;10604;51.976;7.594;2022-10-19T03:09:42;102063.34;;;23.99;31.85
20889;BME280;10604;51.976;7.594;2022-10-19T03:12:08;102060.47;;;23.88;32.00
20889;BME280;10604;51.976;7.594;2022-10-19T03:14:34;102065.63;;;23.64;32.18
20889;BME280;10604;51.976;7.594;2022-10-19T03:16:59;102070.31;;;23.74;32.35
20889;BME280;10604;51.976;7.594;2022-10-19T03:19:25;102062.44;;;23.86;32.12
20889;BME280;10604;51.976;7.594;2022-10-19T03:21:50;102060.13;;;23.79;31.92
20889;BME280;10604;51.976;7.594;2022-10-19T03:24:15;102054.97;;;24.03;31.17
20889;BME280;10604;51.976;7.594;2022-10-19T03:26:41;102059.75;;;23.71;31.86
20889;BME280;10604;51.976;7.594;2022-10-19T03:29:06;102062.84;;;23.51;31.98
20889;BME280;10604;51.976;7.594;2022-10-19T03:31:32;102054.53;;;23.68;32.19
20889;BME280;10604;51.976;7.594;2022-10-19T03:33:57;102054.47;;;23.56;31.76
20889;BME280;10604;51.976;7.594;2022-10-19T03:36:25;102053.19;;;23.61;31.71
20889;BME280;10604;51.976;7.594;2022-10-19T03:39:01;102050.47;;;23.47;32.33
20889;BME280;10604;51.976;7.594;2022-10-19T03:41:30;102047.00;;;23.45;31.95
20889;BME280;10604;51.976;7.594;2022-10-19T03:43:56;102056.44;;;23.38;32.05
20889;BME280;10604;51.976;7.594;2022-10-19T03:46:21;102056.56;;;23.22;31.83
20889;BME280;10604;51.976;7.594;2022-10-19T03:48:47;102055.28;;;23.28;31.82
20889;BME280;10604;51.976;7.594;2022-10-19T03:51:18;102053.16;;;23.19;32.17
20889;BME280;10604;51.976;7.594;2022-10-19T03:53:44;102057.78;;;23.31;31.50
20889;BME280;10604;51.976;7.594;2022-10-19T03:56:15;102060.28;;;23.20;32.35
20889;BME280;10604;51.976;7.594;2022-10-19T03:58:42;102064.84;;;22.89;32.07
20889;BME280;10604;51.976;7.594;2022-10-19T04:01:13;102071.00;;;22.91;32.52
20889;BME280;10604;51.976;7.594;2022-10-19T04:03:39;102074.19;;;22.98;32.25
20889;BME280;10604;51.976;7.594;2022-10-19T04:06:16;102076.97;;;22.96;32.41
20889;BME280;10604;51.976;7.594;2022-10-19T04:08:42;102080.03;;;22.90;32.33
20889;BME280;10604;51.976;7.594;2022-10-19T04:11:12;102082.31;;;22.82;32.64
20889;BME280;10604;51.976;7.594;2022-10-19T04:13:38;102072.88;;;23.19;32.46
20889;BME280;10604;51.976;7.594;2022-10-19T04:16:03;102083.31;;;22.95;33.37
20889;BME280;10604;51.976;7.594;2022-10-19T04:18:29;102085.66;;;23.01;32.67
20889;BME280;10604;51.976;7.594;2022-10-19T04:20:59;102083.44;;;23.08;32.60
20889;BME280;10604;51.976;7.594;2022-10-19T04:23:29;102072.41;;;23.13;32.63
20889;BME280;10604;51.976;7.594;2022-10-19T04:26:06;102066.41;;;22.93;32.98
20889;BME280;10604;51.976;7.594;2022-10-19T04:28:33;102060.63;;;22.99;33.49
20889;BME280;10604;51.976;7.594;2022-10-19T04:31:03;102070.38;;;23.30;32.67
20889;BME280;10604;51.976;7.594;2022-10-19T04:33:28;102069.16;;;23.36;33.29
20889;BME280;10604;51.976;7.594;2022-10-19T04:36:05;102065.13;;;23.43;32.98
20889;BME280;10604;51.976;7.594;2022-10-19T04:38:32;102065.47;;;23.09;33.45
20889;BME280;10604;51.976;7.594;2022-10-19T04:41:08;102056.44;;;23.38;33.17
20889;BME280;10604;51.976;7.594;2022-10-19T04:43:35;102055.47;;;23.39;33.16
20889;BME280;10604;51.976;7.594;2022-10-19T04:46:09;102066.00;;;23.43;32.89
20889;BME280;10604;51.976;7.594;2022-10-19T04:48:36;102064.91;;;23.32;33.11
20889;BME280;10604;51.976;7.594;2022-10-19T04:51:02;102063.34;;;23.14;33.41
20889;BME280;10604;51.976;7.594;2022-10-19T04:53:29;102060.69;;;23.28;33.64
20889;BME280;10604;51.976;7.594;2022-10-19T04:55:54;102060.47;;;23.31;33.59
20889;BME280;10604;51.976;7.594;2022-10-19T04:58:20;102055.09;;;23.45;33.76
20889;BME280;10604;51.976;7.594;2022-10-19T05:00:45;102041.47;;;23.48;33.41
20889;BME280;10604;51.976;7.594;2022-10-19T05:03:11;102044.06;;;23.35;33.67
20889;BME280;10604;51.976;7.594;2022-10-19T05:05:36;102039.72;;;23.33;33.49
20889;BME280;10604;51.976;7.594;2022-10-19T05:08:02;102041.44;;;23.20;33.60
20889;BME280;10604;51.976;7.594;2022-10-19T05:10:27;102045.56;;;23.25;34.12
20889;BME280;10604;51.976;7.594;2022-10-19T05:12:53;102032.88;;;23.41;33.82
20889;BME280;10604;51.976;7.594;2022-10-19T05:15:18;102026.09;;;23.50;33.54
20889;BME280;10604;51.976;7.594;2022-10-19T05:17:43;102028.94;;;23.47;33.52
20889;BME280;10604;51.976;7.594;2022-10-19T05:20:09;102028.56;;;23.53;33.81
20889;BME280;10604;51.976;7.594;2022-10-19T05:22:38;102023.38;;;23.22;34.11
20889;BME280;10604;51.976;7.594;2022-10-19T05:25:04;102023.94;;;23.41;34.13
20889;BME280;10604;51.976;7.594;2022-10-19T05:27:30;102023.00;;;23.56;33.84
20889;BME280;10604;51.976;7.594;2022-10-19T05:29:56;102022.50;;;23.35;34.49
20889;BME280;10604;51.976;7.594;2022-10-19T05:32:21;102026.78;;;23.80;33.61
20889;BME280;10604;51.976;7.594;2022-10-19T05:34:46;102030.16;;;23.84;33.14
20889;BME280;10604;51.976;7.594;2022-10-19T05:37:12;102022.59;;;23.62;33.84
20889;BME280;10604;51.976;7.594;2022-10-19T05:39:37;102030.09;;;23.71;33.28
20889;BME280;10604;51.976;7.594;2022-10-19T05:42:03;102034.84;;;23.95;33.71
20889;BME280;10604;51.976;7.594;2022-10-19T05:44:28;102041.44;;;23.76;33.93
20889;BME280;10604;51.976;7.594;2022-10-19T05:46:53;102035.28;;;23.74;33.80
20889;BME280;10604;51.976;7.594;2022-10-19T05:49:20;102029.78;;;23.76;33.65
20889;BME280;10604;51.976;7.594;2022-10-19T05:51:47;102033.94;;;23.67;33.85
20889;BME280;10604;51.976;7.594;2022-10-19T05:54:13;102039.88;;;24.01;33.45
20889;BME280;10604;51.976;7.594;2022-10-19T05:56:40;102035.66;;;23.83;33.43
20889;BME280;10604;51.976;7.594;2022-10-19T05:59:07;102038.84;;;24.16;33.06
20889;BME280;10604;51.976;7.594;2022-10-19T06:01:33;102035.41;;;24.14;33.10
20889;BME280;10604;51.976;7.594;2022-10-19T06:04:00;102028.03;;;24.16;33.08
20889;BME280;10604;51.976;7.594;2022-10-19T06:06:27;102040.91;;;23.98;33.76
20889;BME280;10604;51.976;7.594;2022-10-19T06:08:55;102041.41;;;23.91;33.74
20889;BME280;10604;51.976;7.594;2022-10-19T06:11:23;102049.56;;;24.03;33.55
20889;BME280;10604;51.976;7.594;2022-10-19T06:13:50;102053.22;;;24.02;33.60
20889;BME280;10604;51.976;7.594;2022-10-19T06:16:17;102049.09;;;24.38;33.17
20889;BME280;10604;51.976;7.594;2022-10-19T06:18:43;102046.53;;;24.36;33.36
20889;BME280;10604;51.976;7.594;2022-10-19T06:21:14;102038.53;;;24.35;33.70
20889;BME280;10604;51.976;7.594;2022-10-19T06:23:40;102043.06;;;24.34;33.25
20889;BME280;10604;51.976;7.594;2022-10-19T06:26:10;102046.53;;;24.36;33.61
20889;BME280;10604;51.976;7.594;2022-10-19T06:28:38;102034.66;;;24.51;33.71
20889;BME280;10604;51.976;7.594;2022-10-19T06:31:04;102042.91;;;24.50;33.54
20889;BME280;10604;51.976;7.594;2022-10-19T06:33:29;102049.81;;;24.67;33.32
20889;BME280;10604;51.976;7.594;2022-10-19T06:35:56;102058.41;;;24.86;33.32
20889;BME280;10604;51.976;7.594;2022-10-19T06:38:28;102053.13;;;24.84;32.95
20889;BME280;10604;51.976;7.594;2022-10-19T06:40:57;102063.06;;;24.84;33.02
20889;BME280;10604;51.976;7.594;2022-10-19T06:43:22;102058.81;;;25.19;33.08
20889;BME280;10604;51.976;7.594;2022-10-19T06:45:48;102069.78;;;24.91;33.08
20889;BME280;10604;51.976;7.594;2022-10-19T06:48:13;102068.59;;;24.95;33.54
20889;BME280;10604;51.976;7.594;2022-10-19T06:50:39;102077.72;;;24.80;33.07
20889;BME280;10604;51.976;7.594;2022-10-19T06:53:04;102069.59;;;25.19;33.26
20889;BME280;10604;51.976;7.594;2022-10-19T06:55:29;102072.66;;;25.15;32.58
20889;BME280;10604;51.976;7.594;2022-10-19T06:57:55;102075.09;;;25.30;33.27
20889;BME280;10604;51.976;7.594;2022-10-19T07:00:22;102065.06;;;25.32;33.27
20889;BME280;10604;51.976;7.594;2022-10-19T07:02:47;102066.78;;;25.08;32.96
20889;BME280;10604;51.976;7.594;2022-10-19T07:05:13;102067.19;;;25.02;32.91
20889;BME280;10604;51.976;7.594;2022-10-19T07:07:38;102068.09;;;25.28;33.05
20889;BME280;10604;51.976;7.594;2022-10-19T07:10:04;102064.63;;;25.39;32.48
20889;BME280;10604;51.976;7.594;2022-10-19T07:12:29;102067.44;;;25.50;32.76
20889;BME280;10604;51.976;7.594;2022-10-19T07:14:55;102069.41;;;25.60;32.93
20889;BME280;10604;51.976;7.594;2022-10-19T07:17:20;102077.16;;;25.65;32.74
20889;BME280;10604;51.976;7.594;2022-10-19T07:19:45;102067.66;;;25.47;32.01
20889;BME280;10604;51.976;7.594;2022-10-19T07:22:11;102074.69;;;25.62;32.62
20889;BME280;10604;51.976;7.594;2022-10-19T07:24:36;102068.91;;;25.79;32.30
20889;BME280;10604;51.976;7.594;2022-10-19T07:27:02;102067.00;;;25.68;31.90
20889;BME280;10604;51.976;7.594;2022-10-19T07:29:28;102072.31;;;25.70;32.38
20889;BME280;10604;51.976;7.594;2022-10-19T07:31:53;102071.53;;;25.93;32.11
20889;BME280;10604;51.976;7.594;2022-10-19T07:34:18;102066.69;;;26.09;32.09
20889;BME280;10604;51.976;7.594;2022-10-19T07:36:45;102071.53;;;25.93;33.16
20889;BME280;10604;51.976;7.594;2022-10-19T07:39:12;102071.47;;;26.06;32.67
20889;BME280;10604;51.976;7.594;2022-10-19T07:41:38;102077.69;;;26.32;31.70
20889;BME280;10604;51.976;7.594;2022-10-19T07:44:04;102077.22;;;26.38;32.33
20889;BME280;10604;51.976;7.594;2022-10-19T07:46:30;102086.97;;;26.64;32.13
20889;BME280;10604;51.976;7.594;2022-10-19T07:49:05;102077.50;;;26.46;31.63
20889;BME280;10604;51.976;7.594;2022-10-19T07:51:32;102078.38;;;26.70;31.89
20889;BME280;10604;51.976;7.594;2022-10-19T07:53:58;102078.75;;;27.12;31.17
20889;BME280;10604;51.976;7.594;2022-10-19T07:56:25;102081.47;;;27.12;32.13
20889;BME280;10604;51.976;7.594;2022-10-19T07:58:53;102084.88;;;27.03;31.80
20889;BME280;10604;51.976;7.594;2022-10-19T08:01:21;102087.88;;;27.11;32.27
20889;BME280;10604;51.976;7.594;2022-10-19T08:03:47;102085.84;;;26.91;31.88
20889;BME280;10604;51.976;7.594;2022-10-19T08:06:15;102089.97;;;27.18;31.42
20889;BME280;10604;51.976;7.594;2022-10-19T08:08:41;102097.28;;;27.51;31.58
20889;BME280;10604;51.976;7.594;2022-10-19T08:13:36;102083.75;;;27.74;31.62
20889;BME280;10604;51.976;7.594;2022-10-19T08:16:02;102085.84;;;27.92;31.94
20889;BME280;10604;51.976;7.594;2022-10-19T08:18:27;102084.00;;;28.04;31.38
20889;BME280;10604;51.976;7.594;2022-10-19T08:20:53;102078.06;;;28.10;32.03
20889;BME280;10604;51.976;7.594;2022-10-19T08:23:18;102091.69;;;28.42;31.22
20889;BME280;10604;51.976;7.594;2022-10-19T08:25:43;102083.63;;;28.52;31.37
20889;BME280;10604;51.976;7.594;2022-10-19T08:28:09;102082.94;;;28.38;31.15
20889;BME280;10604;51.976;7.594;2022-10-19T08:30:34;102076.75;;;28.48;31.05
20889;BME280;10604;51.976;7.594;2022-10-19T08:33:01;102071.25;;;28.59;30.79
20889;BME280;10604;51.976;7.594;2022-10-19T08:35:29;102072.19;;;28.48;31.29
20889;BME280;10604;51.976;7.594;2022-10-19T08:37:55;102071.31;;;28.48;31.54
20889;BME280;10604;51.976;7.594;2022-10-19T08:40:26;102075.38;;;28.85;31.11
20889;BME280;10604;51.976;7.594;2022-10-19T08:43:12;102063.31;;;29.19;30.86
20889;BME280;10604;51.976;7.594;2022-10-19T08:46:06;102071.94;;;28.83;31.18
20889;BME280;10604;51.976;7.594;2022-10-19T08:48:37;102070.88;;;28.95;31.03
20889;BME280;10604;51.976;7.594;2022-10-19T08:51:10;102082.97;;;28.70;31.81
20889;BME280;10604;51.976;7.594;2022-10-19T08:53:38;102084.53;;;29.26;30.94
20889;BME280;10604;51.976;7.594;2022-10-19T08:56:17;102073.97;;;29.53;31.20
20889;BME280;10604;51.976;7.594;2022-10-19T09:04:27;102088.88;;;29.58;30.57
20889;BME280;10604;51.976;7.594;2022-10-19T09:07:24;102087.44;;;29.34;29.53
20889;BME280;10604;51.976;7.594;2022-10-19T09:15:10;102093.31;;;30.49;29.75
20889;BME280;10604;51.976;7.594;2022-10-19T09:17:37;102083.59;;;30.56;28.73
20889;BME280;10604;51.976;7.594;2022-10-19T09:22:43;102090.00;;;29.86;29.74
20889;BME280;10604;51.976;7.594;2022-10-19T09:25:13;102083.31;;;29.60;29.73
20889;BME280;10604;51.976;7.594;2022-10-19T09:27:45;102073.78;;;30.25;29.29
20889;BME280;10604;51.976;7.594;2022-10-19T09:30:22;102067.78;;;29.81;28.26
20889;BME280;10604;51.976;7.594;2022-10-19T09:33:00;102066.13;;;29.59;28.73
20889;BME280;10604;51.976;7.594;2022-10-19T09:35:32;102064.22;;;29.30;29.04
20889;BME280;10604;51.976;7.594;2022-10-19T09:38:00;102060.44;;;29.72;28.69
20889;BME280;10604;51.976;7.594;2022-10-19T09:40:28;102066.16;;;29.69;28.42
20889;BME280;10604;51.976;7.594;2022-10-19T09:42:54;102058.78;;;29.90;27.92
20889;BME280;10604;51.976;7.594;2022-10-19T09:48:32;102062.31;;;30.12;28.22
20889;BME280;10604;51.976;7.594;2022-10-19T09:51:01;102070.09;;;30.84;26.95
20889;BME280;10604;51.976;7.594;2022-10-19T09:53:28;102061.59;;;29.70;28.16
20889;BME280;10604;51.976;7.594;2022-10-19T09:56:05;102066.09;;;30.88;27.00
20889;BME280;10604;51.976;7.594;2022-10-19T09:58:31;102062.91;;;31.02;26.87
20889;BME280;10604;51.976;7.594;2022-10-19T10:00:57;102063.81;;;31.12;26.03
20889;BME280;10604;51.976;7.594;2022-10-19T10:06:01;102052.19;;;30.71;26.08
20889;BME280;10604;51.976;7.594;2022-10-19T10:08:34;102046.88;;;30.80;25.94
20889;BME280;10604;51.976;7.594;2022-10-19T10:13:42;102033.81;;;30.73;25.83
20889;BME280;10604;51.976;7.594;2022-10-19T10:16:11;102041.66;;;31.15;25.79
20889;BME280;10604;51.976;7.594;2022-10-19T10:18:57;102039.25;;;30.35;26.42
20889;BME280;10604;51.976;7.594;2022-10-19T10:21:28;102037.38;;;30.84;26.06
20889;BME280;10604;51.976;7.594;2022-10-19T10:26:40;102031.22;;;31.47;25.46
20889;BME280;10604;51.976;7.594;2022-10-19T10:29:24;102034.09;;;30.32;26.12
20889;BME280;10604;51.976;7.594;2022-10-19T10:32:01;102027.47;;;31.48;25.35
20889;BME280;10604;51.976;7.594;2022-10-19T10:34:46;102028.38;;;29.85;26.56
20889;BME280;10604;51.976;7.594;2022-10-19T10:37:43;102031.03;;;30.06;26.78
20889;BME280;10604;51.976;7.594;2022-10-19T10:42:49;102028.78;;;30.79;26.43
20889;BME280;10604;51.976;7.594;2022-10-19T10:45:19;102023.06;;;30.72;26.38
20889;BME280;10604;51.976;7.594;2022-10-19T10:47:47;102021.06;;;29.15;27.12
20889;BME280;10604;51.976;7.594;2022-10-19T10:50:22;102021.19;;;28.52;28.12
20889;BME280;10604;51.976;7.594;2022-10-19T10:53:00;102023.56;;;29.98;26.28
20889;BME280;10604;51.976;7.594;2022-10-19T10:55:26;102008.91;;;29.80;26.39
20889;BME280;10604;51.976;7.594;2022-10-19T10:58:17;101998.84;;;29.62;26.76
20889;BME280;10604;51.976;7.594;2022-10-19T11:00:46;102000.53;;;29.53;27.71
20889;BME280;10604;51.976;7.594;2022-10-19T11:03:21;102009.28;;;30.45;26.57
20889;BME280;10604;51.976;7.594;2022-10-19T11:05:53;102015.44;;;30.95;25.54
20889;BME280;10604;51.976;7.594;2022-10-19T11:10:56;102005.72;;;32.64;24.13
20889;BME280;10604;51.976;7.594;2022-10-19T11:13:32;101997.38;;;31.95;24.86
20889;BME280;10604;51.976;7.594;2022-10-19T11:16:12;101992.69;;;32.05;24.20
20889;BME280;10604;51.976;7.594;2022-10-19T11:18:43;101987.78;;;32.44;24.42
20889;BME280;10604;51.976;7.594;2022-10-19T11:21:14;101990.19;;;31.39;24.81
20889;BME280;10604;51.976;7.594;2022-10-19T11:31:54;101965.50;;;31.86;24.41
20889;BME280;10604;51.976;7.594;2022-10-19T11:40:32;101931.56;;;32.59;24.47
20889;BME280;10604;51.976;7.594;2022-10-19T11:43:20;101925.59;;;32.38;24.31
20889;BME280;10604;51.976;7.594;2022-10-19T11:45:58;101917.72;;;32.61;23.72
20889;BME280;10604;51.976;7.594;2022-10-19T11:51:33;101912.63;;;32.22;24.63
20889;BME280;10604;51.976;7.594;2022-10-19T11:57:15;101914.66;;;30.37;26.01
20889;BME280;10604;51.976;7.594;2022-10-19T12:00:07;101909.63;;;31.63;25.02
20889;BME280;10604;51.976;7.594;2022-10-19T12:09:03;101889.63;;;31.44;24.81
20889;BME280;10604;51.976;7.594;2022-10-19T12:14:24;101889.41;;;32.18;23.91
20889;BME280;10604;51.976;7.594;2022-10-19T12:17:03;101884.53;;;32.56;23.74
20889;BME280;10604;51.976;7.594;2022-10-19T12:19:39;101875.78;;;32.26;24.36
20889;BME280;10604;51.976;7.594;2022-10-19T12:22:13;101876.97;;;31.71;24.81
20889;BME280;10604;51.976;7.594;2022-10-19T12:24:39;101883.81;;;30.65;25.71
20889;BME280;10604;51.976;7.594;2022-10-19T12:27:05;101890.91;;;31.23;25.60
20889;BME280;10604;51.976;7.594;2022-10-19T12:29:36;101894.91;;;30.54;26.08
20889;BME280;10604;51.976;7.594;2022-10-19T12:32:04;101891.66;;;31.42;25.65
20889;BME280;10604;51.976;7.594;2022-10-19T12:34:51;101884.94;;;31.64;25.67
20889;BME280;10604;51.976;7.594;2022-10-19T12:37:34;101874.59;;;32.55;24.32
20889;BME280;10604;51.976;7.594;2022-10-19T12:43:23;101858.50;;;31.65;24.77
20889;BME280;10604;51.976;7.594;2022-10-19T12:51:50;101846.09;;;32.83;24.26
20889;BME280;10604;51.976;7.594;2022-10-19T12:54:21;101841.28;;;32.77;23.69
20889;BME280;10604;51.976;7.594;2022-10-19T12:56:49;101836.41;;;31.13;25.16
20889;BME280;10604;51.976;7.594;2022-10-19T12:59:30;101841.06;;;31.30;24.86
20889;BME280;10604;51.976;7.594;2022-10-19T13:01:57;101840.81;;;31.69;24.88
20889;BME280;10604;51.976;7.594;2022-10-19T13:04:25;101828.72;;;30.99;25.65
20889;BME280;10604;51.976;7.594;2022-10-19T13:07:07;101829.63;;;31.80;24.95
20889;BME280;10604;51.976;7.594;2022-10-19T13:09:37;101826.66;;;31.91;24.66
20889;BME280;10604;51.976;7.594;2022-10-19T13:22:40;101786.78;;;30.45;26.00
20889;BME280;10604;51.976;7.594;2022-10-19T13:27:45;101784.38;;;30.69;25.81
20889;BME280;10604;51.976;7.594;2022-10-19T13:38:27;101772.13;;;30.56;26.43
20889;BME280;10604;51.976;7.594;2022-10-19T13:41:01;101777.78;;;30.72;26.53
20889;BME280;10604;51.976;7.594;2022-10-19T13:43:31;101774.53;;;30.68;26.21
20889;BME280;10604;51.976;7.594;2022-10-19T13:54:15;101761.47;;;30.62;25.87
20889;BME280;10604;51.976;7.594;2022-10-19T13:59:56;101747.66;;;30.36;26.67
20889;BME280;10604;51.976;7.594;2022-10-19T14:10:56;101753.09;;;29.80;26.78
20889;BME280;10604;51.976;7.594;2022-10-19T14:13:23;101752.84;;;29.54;27.49
20889;BME280;10604;51.976;7.594;2022-10-19T14:15:51;101748.50;;;29.71;26.87
20889;BME280;10604;51.976;7.594;2022-10-19T14:18:22;101746.31;;;30.60;25.76
20889;BME280;10604;51.976;7.594;2022-10-19T14:20:56;101736.63;;;29.72;27.34
20889;BME280;10604;51.976;7.594;2022-10-19T14:23:28;101732.22;;;30.64;25.94
20889;BME280;10604;51.976;7.594;2022-10-19T14:25:56;101724.63;;;30.31;26.32
20889;BME280;10604;51.976;7.594;2022-10-19T14:28:23;101727.59;;;29.72;26.63
20889;BME280;10604;51.976;7.594;2022-10-19T14:30:58;101730.94;;;29.37;26.52
20889;BME280;10604;51.976;7.594;2022-10-19T14:33:25;101721.25;;;30.10;26.40
20889;BME280;10604;51.976;7.594;2022-10-19T14:35:52;101718.16;;;29.76;26.77
20889;BME280;10604;51.976;7.594;2022-10-19T14:38:32;101723.91;;;29.25;27.25
20889;BME280;10604;51.976;7.594;2022-10-19T14:41:05;101719.78;;;28.71;27.78
20889;BME280;10604;51.976;7.594;2022-10-19T14:43:41;101712.84;;;30.30;26.21
20889;BME280;10604;51.976;7.594;2022-10-19T14:48:33;101714.84;;;28.46;27.89
20889;BME280;10604;51.976;7.594;2022-10-19T14:50:59;101715.91;;;29.52;27.01
20889;BME280;10604;51.976;7.594;2022-10-19T14:53:39;101710.25;;;30.39;26.18
20889;BME280;10604;51.976;7.594;2022-10-19T14:56:18;101710.03;;;30.13;26.42
20889;BME280;10604;51.976;7.594;2022-10-19T14:59:06;101707.59;;;29.44;27.08
20889;BME280;10604;51.976;7.594;2022-10-19T15:01:39;101711.66;;;28.31;28.08
20889;BME280;10604;51.976;7.594;2022-10-19T15:04:17;101706.13;;;28.82;27.72
20889;BME280;10604;51.976;7.594;2022-10-19T15:06:42;101704.03;;;29.34;27.67
20889;BME280;10604;51.976;7.594;2022-10-19T15:11:49;101699.97;;;28.99;27.79
20889;BME280;10604;51.976;7.594;2022-10-19T15:14:19;101687.25;;;29.09;27.52
20889;BME280;10604;51.976;7.594;2022-10-19T15:17:03;101697.53;;;28.77;28.12